Flight Track Log - Related Links

Times and Time Zones

All times are in EST time to prevent confusion due to time zone crossing. See the N63TV flight status page for this flight to view local times or setup timezone preferences in your user account.

Time Position Orientation Groundspeed Altitude Reporting Facility
EST Latitude Longitude Course Direction KTS MPH feet Rate Location/Type
Fri 12:20:29 PM 41.4158 -73.9450 22° Northeast 145 167 5,500  Level Boston Center
Fri 12:21:30 PM 41.4550 -73.9219 24° Northeast 143 165 5,400  Descending Boston Center
Fri 12:22:43 PM 41.5000 -73.9000 20° North 126 145 5,500 45 Climbing New York TRACON
Fri 12:23:43 PM 41.5333 -73.8833 21° North 142 163 5,500 53 Level New York TRACON
Fri 12:24:37 PM 41.5667 -73.8667 21° North 125 144 5,600  Climbing New York TRACON
Fri 12:25:37 PM 41.6000 -73.8500 21° North 132 152 5,500 -46 Descending New York TRACON
Fri 12:26:00 PM 41.7014 -73.9886 22° Northeast  Level FlightAware Approximate
Fri 12:26:48 PM 41.6317 -73.8272 28° Northeast 135 155 5,500  Level Boston Center
Fri 12:27:49 PM 41.6583 -73.8147 19° North 132 152 5,500  Level Boston Center
Fri 12:29:02 PM 41.6994 -73.7953 19° North 127 146 5,500 44 Level Boston Center
Fri 12:30:04 PM 41.7400 -73.7781 18° North 126 145 5,600  Climbing Boston Center
Fri 12:31:05 PM 41.7731 -73.7822 355° North 120 138 5,500  Descending Boston Center
Fri 12:32:06 PM 41.8125 -73.7753 North 142 163 5,600  Climbing Boston Center
Fri 12:33:07 PM 41.8467 -73.7414 36° Northeast 153 176 5,500 -49 Descending Boston Center
Fri 12:34:08 PM 41.8817 -73.7222 22° Northeast 134 154 5,500 54 Level Boston Center
Fri 12:34:58 PM 41.9081 -73.7175 North 122 140 5,600 97 Climbing Boston Center
Fri 12:35:10 PM 41.9169 -73.7158 North 129 148 5,600 -82 Level Boston Center
Fri 12:36:11 PM 41.9564 -73.7047 12° North 135 155 5,500  Descending Boston Center
Fri 12:37:11 PM 41.9908 -73.6875 20° North 139 160 5,600 98 Climbing Boston Center
Fri 12:37:12 PM 41.9919 -73.6869 20° North 136 157 5,600 -97 Level Boston Center
Fri 12:38:13 PM 42.0286 -73.6650 24° Northeast 145 167 5,500 -49 Descending Boston Center
Fri 12:39:14 PM 42.0628 -73.6400 29° Northeast 141 162 5,500  Level Boston Center
Fri 12:40:07 PM 42.0933 -73.6206 25° Northeast 140 161 5,500  Level Boston Center
Fri 12:40:16 PM 42.0944 -73.6203 11° North 144 166 5,500 98 Level Boston Center
Fri 12:41:08 PM 42.1286 -73.6036 20° North 136 157 5,600  Climbing Boston Center
Fri 12:41:17 PM 42.1372 -73.6006 15° North 137 158 5,500 -86 Descending Boston Center
Fri 12:42:18 PM 42.1756 -73.5886 13° North 139 160 5,500  Level Boston Center
Fri 12:43:19 PM 42.2131 -73.5708 19° North 142 163 5,500  Level Boston Center
Fri 12:43:21 PM 42.2119 -73.5706 170° South 144 166 5,500  Level Boston Center
Fri 12:44:16 PM 42.2464 -73.5472 27° Northeast 144 166 5,500  Level Boston Center
Fri 12:44:20 PM 42.2486 -73.5478 350° North 143 165 5,500  Level Boston Center
Fri 12:45:10 PM 42.2817 -73.5417 North 138 159 5,500  Level Boston Center
Fri 12:45:22 PM 42.2872 -73.5381 26° Northeast 140 161 5,500  Level Boston Center
Fri 12:46:11 PM 42.3197 -73.5222 20° North 144 166 5,500  Level Boston Center
Fri 12:46:23 PM 42.3250 -73.5200 17° North 142 163 5,500  Level Boston Center
Fri 12:47:12 PM 42.3581 -73.5003 24° Northeast 151 174 5,500  Level Boston Center
Fri 12:47:24 PM 42.3678 -73.4939 26° Northeast 148 170 5,500  Level Boston Center
Fri 12:48:18 PM 42.3967 -73.4756 25° Northeast 146 168 5,500  Level Boston Center
Fri 12:48:25 PM 42.4044 -73.4706 25° Northeast 147 169 5,500  Level Boston Center
Fri 12:49:19 PM 42.4331 -73.4528 25° Northeast 143 165 5,500  Level Boston Center
Fri 12:49:26 PM 42.4408 -73.4486 22° Northeast 144 166 5,500  Level Boston Center
Fri 12:50:20 PM 42.4719 -73.4281 26° Northeast 143 165 5,500 97 Level Boston Center
Fri 12:50:28 PM 42.4758 -73.4247 32° Northeast 142 163 5,600  Climbing Boston Center
Fri 12:51:20 PM 42.5072 -73.4106 18° North 138 159 5,500 -98 Descending Boston Center
Fri 12:51:29 PM 42.5153 -73.4069 18° North 140 161 5,500 98 Level Boston Center
Fri 12:52:21 PM 42.5444 -73.3939 18° North 137 158 5,600 98 Climbing Boston Center
Fri 12:52:30 PM 42.5514 -73.3919 12° North 136 157 5,600  Level Boston Center
Fri 12:53:22 PM 42.5800 -73.3767 21° North 140 161 5,600 -98 Level Boston Center
Fri 12:53:31 PM 42.5878 -73.3731 19° North 139 160 5,500 -86 Descending Boston Center
Fri 12:54:32 PM 42.6247 -73.3603 14° North 137 158 5,500 54 Level Boston Center
Fri 12:55:23 PM 42.6525 -73.3425 25° Northeast 139 160 5,600 98 Climbing Boston Center
Fri 12:55:33 PM 42.6550 -73.3422 North 139 160 5,600  Level Boston Center
Fri 12:56:24 PM 42.6908 -73.3203 24° Northeast 147 169 5,600 -97 Level Boston Center
Fri 12:56:35 PM 42.7011 -73.3156 19° North 146 168 5,500 -91 Descending Boston Center
Fri 12:57:30 PM 42.7325 -73.2903 31° Northeast 151 174 5,500  Level Boston Center
Fri 12:57:36 PM 42.7372 -73.2875 23° Northeast 150 173 5,500  Level Boston Center
Fri 12:58:25 PM 42.7658 -73.2606 35° Northeast 149 171 5,500 -98 Level Boston Center
Fri 12:58:37 PM 42.7722 -73.2575 19° North 149 171 5,400  Descending Boston Center
Fri 12:59:26 PM 42.7989 -73.2306 37° Northeast 145 167 5,500 98 Climbing Boston Center
Fri 12:59:38 PM 42.8075 -73.2228 34° Northeast 148 170 5,500  Level Boston Center
Fri 01:00:20 PM 42.8303 -73.2000 36° Northeast 149 171 5,500  Level Boston Center
Fri 01:00:39 PM 42.8431 -73.1911 27° Northeast 151 174 5,500  Level Boston Center
Fri 01:01:41 PM 42.8806 -73.1792 13° North 140 161 5,500 49 Level Boston Center
Fri 01:02:42 PM 42.9189 -73.1594 21° North 146 168 5,600  Climbing Boston Center
Fri 01:03:43 PM 42.9572 -73.1400 20° North 148 170 5,500  Descending Boston Center
Fri 01:04:44 PM 42.9981 -73.1289 11° North 141 162 5,600 -49 Climbing Boston Center
Fri 01:05:46 PM 43.0342 -73.1036 27° Northeast 147 169 5,400  Descending Boston Center
Fri 01:06:47 PM 43.0656 -73.0775 31° Northeast 135 155 5,600 98 Climbing Boston Center
Fri 01:07:48 PM 43.1014 -73.0547 25° Northeast 140 161 5,600 -98 Level Boston Center
Fri 01:08:49 PM 43.1406 -73.0264 28° Northeast 147 169 5,400 -90 Descending Boston Center
Fri 01:10:02 PM 43.1725 -73.0014 30° Northeast 144 166 5,400  Level Boston Center
Fri 01:11:04 PM 43.2025 -72.9536 49° Northeast 140 161 5,400 -49 Level Boston Center
Fri 01:12:05 PM 43.2289 -72.9078 52° Northeast 145 167 5,300 -98 Descending Boston Center

Login

Don't have an account? Register now (free) for customized features, flight alerts, and more!